createdAt,value
2022-12-16T00:04:25.719Z,67.00
2022-12-16T00:09:30.999Z,68.25
2022-12-16T00:14:34.644Z,68.28
2022-12-16T00:19:38.255Z,68.10
2022-12-16T00:24:44.473Z,69.37
2022-12-16T00:29:47.324Z,71.60
2022-12-16T00:34:50.907Z,70.05
2022-12-16T00:39:57.081Z,70.63
2022-12-16T00:45:00.666Z,70.61
2022-12-16T00:50:04.687Z,70.53
2022-12-16T00:55:11.775Z,72.62
2022-12-16T01:00:17.136Z,71.24
2022-12-16T01:05:23.188Z,72.15
2022-12-16T01:10:28.496Z,72.51
2022-12-16T01:15:32.178Z,72.02
2022-12-16T01:20:35.764Z,72.63
2022-12-16T01:25:41.059Z,72.93
2022-12-16T01:30:44.692Z,73.25
2022-12-16T01:35:56.347Z,72.90
2022-12-16T01:41:02.236Z,73.80
2022-12-16T01:46:10.745Z,73.77
2022-12-16T01:51:21.487Z,73.86
2022-12-16T01:56:32.461Z,74.26
2022-12-16T02:01:36.246Z,74.12
2022-12-16T02:06:40.043Z,74.25
2022-12-16T02:12:06.564Z,74.72
2022-12-16T02:17:17.078Z,75.20
2022-12-16T02:22:32.509Z,76.09
2022-12-16T02:28:01.532Z,76.04
2022-12-16T02:33:19.206Z,75.92
2022-12-16T02:38:29.361Z,75.82
2022-12-16T02:43:50.041Z,76.43
2022-12-16T02:48:55.452Z,76.34
2022-12-16T02:53:59.200Z,76.42
2022-12-16T02:59:15.140Z,76.54
2022-12-16T03:04:24.553Z,76.90
2022-12-16T03:09:32.972Z,77.98
2022-12-16T03:14:40.434Z,75.77
2022-12-16T03:19:52.340Z,76.21
2022-12-16T03:24:56.215Z,75.17
2022-12-16T03:30:05.511Z,76.18
2022-12-16T03:35:15.489Z,76.28
2022-12-16T03:40:20.244Z,76.56
2022-12-16T03:45:28.277Z,76.96
2022-12-16T03:50:34.748Z,77.79
2022-12-16T03:55:37.564Z,76.45
2022-12-16T04:00:41.153Z,76.99
2022-12-16T04:05:46.971Z,77.84
2022-12-16T04:10:56.876Z,74.23
2022-12-16T04:16:00.847Z,76.22
2022-12-16T04:21:06.500Z,76.82
2022-12-16T04:26:10.611Z,77.05
2022-12-16T04:31:14.335Z,77.33
2022-12-16T04:36:19.668Z,77.77
2022-12-16T04:41:23.359Z,77.51
2022-12-16T04:46:27.128Z,78.10
2022-12-16T04:51:32.544Z,78.36
2022-12-16T04:56:36.156Z,77.91
2022-12-16T05:01:39.875Z,78.46
2022-12-16T05:06:45.224Z,78.25
2022-12-16T05:11:48.822Z,78.36
2022-12-16T05:16:52.460Z,78.35
2022-12-16T05:21:57.740Z,79.59
2022-12-16T05:27:01.333Z,78.34
2022-12-16T05:32:05.016Z,79.25
2022-12-16T05:37:10.304Z,78.85
2022-12-16T05:42:13.956Z,79.41
2022-12-16T05:47:17.598Z,79.91
2022-12-16T05:52:22.947Z,79.85
2022-12-16T05:57:26.548Z,79.87
2022-12-16T06:02:30.283Z,79.87
2022-12-16T06:07:35.709Z,79.90
2022-12-16T06:12:39.327Z,79.54
2022-12-16T06:17:44.033Z,81.20
2022-12-16T06:22:54.660Z,80.62
2022-12-16T06:27:58.288Z,80.11
2022-12-16T06:33:01.873Z,80.49
2022-12-16T06:38:07.150Z,81.36
2022-12-16T06:43:10.814Z,80.94
2022-12-16T06:48:14.428Z,80.50
2022-12-16T06:53:19.726Z,80.53
2022-12-16T06:58:23.325Z,81.03
2022-12-16T07:03:28.680Z,81.33
2022-12-16T07:08:36.757Z,81.82
2022-12-16T07:13:40.988Z,81.86
2022-12-16T07:18:44.603Z,82.19
2022-12-16T07:23:49.887Z,81.58
2022-12-16T07:28:55.200Z,81.25
2022-12-16T07:33:58.938Z,80.95
2022-12-16T07:39:04.261Z,80.92
2022-12-16T07:44:07.855Z,81.43
2022-12-16T07:49:11.481Z,80.95
2022-12-16T07:54:16.777Z,81.45
2022-12-16T07:59:20.417Z,82.11
2022-12-16T08:04:24.162Z,81.04
2022-12-16T08:09:29.504Z,82.43
2022-12-16T08:14:33.147Z,81.14
2022-12-16T08:19:36.763Z,81.41
2022-12-16T08:24:42.029Z,82.26
2022-12-16T08:29:45.909Z,82.23
2022-12-16T08:34:49.634Z,82.11
2022-12-16T08:40:10.985Z,82.76
2022-12-16T08:45:18.573Z,81.59
2022-12-16T08:50:22.181Z,83.33
2022-12-16T08:55:29.628Z,83.19
2022-12-16T09:00:33.640Z,83.58
2022-12-16T09:05:37.216Z,84.08
2022-12-16T09:10:42.471Z,83.39
2022-12-16T09:15:46.634Z,83.70
2022-12-16T09:20:51.792Z,83.47
2022-12-16T09:25:57.117Z,83.24
2022-12-16T09:31:00.902Z,82.72
2022-12-16T09:36:04.730Z,83.57
2022-12-16T09:41:29.174Z,84.00
2022-12-16T09:46:42.298Z,83.35
2022-12-16T09:51:48.368Z,85.05
2022-12-16T09:56:55.176Z,84.54
2022-12-16T10:01:59.955Z,84.03
2022-12-16T10:07:03.764Z,83.58
2022-12-16T10:12:17.507Z,86.09
2022-12-16T10:17:25.335Z,85.90
2022-12-16T10:22:37.068Z,85.43
2022-12-16T10:27:45.580Z,86.47
2022-12-16T10:32:50.867Z,86.61
2022-12-16T10:37:54.961Z,86.48
2022-12-16T10:43:03.771Z,87.69
2022-12-16T10:48:09.548Z,85.74
2022-12-16T10:53:15.706Z,83.93
2022-12-16T10:58:34.095Z,84.30
2022-12-16T11:03:40.477Z,84.72
2022-12-16T11:08:44.260Z,86.16
2022-12-16T11:13:49.505Z,85.54
2022-12-16T11:18:53.098Z,85.28
2022-12-16T11:24:14.819Z,87.05
2022-12-16T11:29:24.098Z,87.00
2022-12-16T11:34:27.807Z,84.63
2022-12-16T11:39:33.501Z,85.57
2022-12-16T11:44:43.625Z,86.34
2022-12-16T11:49:47.213Z,85.24
2022-12-16T11:54:57.680Z,85.78
2022-12-16T12:00:04.934Z,86.88
2022-12-16T12:05:12.593Z,87.87
2022-12-16T12:10:47.103Z,87.64
2022-12-16T12:16:05.115Z,86.42
2022-12-16T12:21:16.944Z,86.88
2022-12-16T12:26:26.357Z,86.67
2022-12-16T12:31:40.347Z,88.39
2022-12-16T12:36:55.823Z,87.78
2022-12-16T12:42:13.550Z,86.47
2022-12-16T12:47:20.121Z,87.67
2022-12-16T12:52:29.731Z,88.15
2022-12-16T12:57:36.954Z,86.28
2022-12-16T13:02:48.362Z,87.87
2022-12-16T13:07:52.205Z,86.89
2022-12-16T13:13:29.343Z,85.57
2022-12-16T13:18:34.840Z,85.62
2022-12-16T13:23:39.789Z,86.83
2022-12-16T13:29:03.931Z,86.05
2022-12-16T13:34:24.508Z,84.62
2022-12-16T13:39:29.829Z,85.36
2022-12-16T13:44:59.832Z,86.98
2022-12-16T13:50:37.892Z,84.91
2022-12-16T13:55:48.821Z,86.01
2022-12-16T14:01:07.504Z,86.18
2022-12-16T14:06:25.349Z,85.57
2022-12-16T14:11:40.209Z,85.81
2022-12-16T14:16:51.800Z,86.56
2022-12-16T14:22:14.278Z,85.56
2022-12-16T14:27:20.347Z,84.50
2022-12-16T14:32:29.709Z,85.53
2022-12-16T14:37:38.503Z,84.66
2022-12-16T14:42:43.244Z,83.87
2022-12-16T14:47:46.875Z,84.52
2022-12-16T14:53:06.912Z,85.98
2022-12-16T14:58:12.957Z,85.65
2022-12-16T15:03:23.984Z,86.63
2022-12-16T15:08:33.873Z,84.01
2022-12-16T15:13:38.187Z,85.37
2022-12-16T15:18:45.687Z,85.52
2022-12-16T15:23:51.708Z,86.62
2022-12-16T15:28:55.475Z,86.01
2022-12-16T15:34:33.919Z,86.23
2022-12-16T15:39:42.965Z,85.90
2022-12-16T15:44:50.239Z,85.88
2022-12-16T15:49:55.130Z,86.15
2022-12-16T15:55:03.280Z,84.82
2022-12-16T16:00:21.299Z,85.54
2022-12-16T16:05:25.640Z,85.16
2022-12-16T16:10:31.003Z,84.81
2022-12-16T16:15:34.798Z,85.78
2022-12-16T16:20:44.530Z,85.37
2022-12-16T16:25:50.277Z,84.87
2022-12-16T16:30:53.950Z,84.70
2022-12-16T16:35:57.684Z,83.60
2022-12-16T16:41:02.937Z,82.78
2022-12-16T16:46:24.124Z,82.01
2022-12-16T16:51:28.505Z,82.41
2022-12-16T16:56:36.519Z,83.42
2022-12-16T17:01:40.245Z,82.00
2022-12-16T17:06:44.119Z,82.16
2022-12-16T17:11:49.381Z,81.70
2022-12-16T17:16:52.978Z,78.45
2022-12-16T17:21:56.597Z,78.88
2022-12-16T17:27:08.666Z,78.31
2022-12-16T17:32:12.584Z,76.74
2022-12-16T17:37:16.187Z,72.91
2022-12-16T17:42:21.431Z,71.68
2022-12-16T17:47:25.096Z,66.35
2022-12-16T17:52:29.053Z,70.72
2022-12-16T17:57:34.916Z,68.48
2022-12-16T18:02:38.628Z,67.33
2022-12-16T18:07:42.366Z,63.14
2022-12-16T18:12:47.623Z,63.10
2022-12-16T18:18:05.069Z,63.06
2022-12-16T18:23:08.765Z,57.23
2022-12-16T18:28:14.184Z,57.93
2022-12-16T18:33:48.276Z,54.60
2022-12-16T18:38:51.850Z,56.17
2022-12-16T18:43:57.112Z,53.89
2022-12-16T19:13:28.065Z,49.01
2022-12-16T23:40:22.601Z,58.81
2022-12-16T23:45:26.237Z,59.70
2022-12-16T23:50:29.853Z,60.30
2022-12-16T23:55:35.128Z,60.64
